Time;durP1;ratioP1;P1;durP2;ratioP2;P2;SDS_P1;SDS_P2;PMS_P1;PMS_P2;Temp;Humidity;BMP_temperature;BMP_pressure;BME280_temperature;BME280_humidity;BME280_pressure;Samples;Min_cycle;Max_cycle;Signal;HPM_P1;HPM_P2
2022/03/05 00:01:04;;;;;;;;;;;22.30;27.90;;;;;;5044913;28;20306;-67
2022/03/05 00:03:32;;;;;;;;;;;22.30;27.90;;;;;;5046500;28;20054;-67
2022/03/05 00:05:59;;;;;;;;;;;22.30;27.90;;;;;;5046562;28;20135;-67
2022/03/05 00:08:26;;;;;;;;;;;22.20;27.90;;;;;;5054761;28;19924;-68
2022/03/05 00:10:53;;;;;;;;;;;22.20;27.90;;;;;;5066673;28;20014;-67
2022/03/05 00:13:20;;;;;;;;;;;22.30;28.00;;;;;;5065824;28;19972;-67
2022/03/05 00:15:47;;;;;;;;;;;22.30;28.00;;;;;;5066472;28;19925;-67
2022/03/05 00:18:15;;;;;;;;;;;22.30;28.00;;;;;;5064960;28;19986;-67
2022/03/05 00:20:42;;;;;;;;;;;22.20;27.90;;;;;;5065627;28;20301;-68
2022/03/05 00:23:09;;;;;;;;;;;22.20;27.90;;;;;;5065450;28;20032;-67
2022/03/05 00:25:37;;;;;;;;;;;22.20;27.90;;;;;;5065753;28;19971;-70
2022/03/05 00:28:04;;;;;;;;;;;22.20;28.00;;;;;;5066252;28;19929;-67
2022/03/05 00:30:31;;;;;;;;;;;22.20;28.00;;;;;;5065576;28;19970;-67
2022/03/05 00:32:58;;;;;;;;;;;22.20;27.90;;;;;;5065879;28;19975;-67
2022/03/05 00:35:25;;;;;;;;;;;22.20;28.00;;;;;;5066168;28;19925;-67
2022/03/05 00:37:52;;;;;;;;;;;22.20;28.00;;;;;;5065616;28;19975;-68
2022/03/05 00:40:19;;;;;;;;;;;22.20;28.00;;;;;;5066075;28;20357;-67
2022/03/05 00:42:46;;;;;;;;;;;22.20;28.00;;;;;;5065423;28;20340;-68
2022/03/05 00:45:13;;;;;;;;;;;22.20;28.00;;;;;;5066087;28;20262;-68
2022/03/05 00:47:40;;;;;;;;;;;22.20;28.10;;;;;;5065999;28;19932;-70
2022/03/05 00:50:07;;;;;;;;;;;22.20;28.10;;;;;;5065535;28;19925;-68
2022/03/05 00:52:35;;;;;;;;;;;22.20;28.10;;;;;;5069495;28;20309;-68
2022/03/05 00:55:02;;;;;;;;;;;22.20;28.10;;;;;;5069415;28;20271;-68
2022/03/05 00:57:29;;;;;;;;;;;22.20;28.10;;;;;;5069539;28;20092;-67
2022/03/05 00:59:56;;;;;;;;;;;22.20;28.10;;;;;;5069532;28;20378;-68
2022/03/05 01:02:23;;;;;;;;;;;22.20;28.10;;;;;;5069185;28;19928;-68
2022/03/05 01:04:51;;;;;;;;;;;22.20;28.10;;;;;;5069807;28;19924;-68
2022/03/05 01:07:18;;;;;;;;;;;22.20;28.10;;;;;;5069068;28;19924;-68
2022/03/05 01:09:45;;;;;;;;;;;22.20;28.10;;;;;;5069552;28;19978;-68
2022/03/05 01:12:12;;;;;;;;;;;22.20;28.10;;;;;;5069181;28;19986;-67
2022/03/05 01:14:39;;;;;;;;;;;22.20;28.10;;;;;;5069415;28;19982;-67
2022/03/05 01:17:07;;;;;;;;;;;22.20;28.10;;;;;;5069270;28;19928;-68
2022/03/05 01:19:34;;;;;;;;;;;22.20;28.10;;;;;;5068499;28;19925;-67
2022/03/05 01:22:01;;;;;;;;;;;22.20;28.10;;;;;;5067973;28;19986;-67
2022/03/05 01:24:28;;;;;;;;;;;22.20;28.10;;;;;;5068752;28;19932;-67
2022/03/05 01:26:55;;;;;;;;;;;22.20;28.10;;;;;;5068853;28;19924;-67
2022/03/05 01:29:22;;;;;;;;;;;22.20;28.10;;;;;;5069476;28;20378;-67
2022/03/05 01:31:49;;;;;;;;;;;22.10;28.00;;;;;;5068708;28;19928;-68
2022/03/05 01:34:16;;;;;;;;;;;22.10;28.00;;;;;;5069005;28;20589;-67
2022/03/05 01:36:43;;;;;;;;;;;22.10;28.00;;;;;;5068369;28;20369;-67
2022/03/05 01:39:10;;;;;;;;;;;22.10;28.00;;;;;;5068943;28;19928;-68
2022/03/05 01:41:37;;;;;;;;;;;22.10;28.00;;;;;;5067351;28;19925;-68
2022/03/05 01:44:05;;;;;;;;;;;22.10;28.10;;;;;;5069277;28;19970;-68
2022/03/05 01:46:38;;;;;;;;;;;22.10;28.50;;;;;;5068607;28;19924;-68
2022/03/05 01:49:06;;;;;;;;;;;22.10;28.00;;;;;;5068350;28;19925;-68
2022/03/05 01:51:34;;;;;;;;;;;22.10;28.50;;;;;;5068726;28;19925;-68
2022/03/05 01:54:02;;;;;;;;;;;22.10;28.10;;;;;;5068722;28;20419;-68
2022/03/05 01:56:29;;;;;;;;;;;22.10;28.10;;;;;;5068599;28;19930;-68
2022/03/05 01:58:56;;;;;;;;;;;22.10;28.10;;;;;;5068617;28;19924;-68
2022/03/05 02:01:24;;;;;;;;;;;22.10;28.10;;;;;;5067800;28;19970;-68
2022/03/05 02:03:52;;;;;;;;;;;22.10;28.10;;;;;;5067313;28;19925;-68
2022/03/05 02:06:19;;;;;;;;;;;22.10;28.10;;;;;;5067526;28;19928;-68
2022/03/05 02:08:46;;;;;;;;;;;22.10;28.10;;;;;;5068091;28;19924;-68
2022/03/05 02:11:13;;;;;;;;;;;22.10;28.10;;;;;;5068089;28;20377;-68
2022/03/05 02:13:41;;;;;;;;;;;22.00;28.10;;;;;;5067471;28;19933;-68
2022/03/05 02:16:09;;;;;;;;;;;22.00;28.10;;;;;;5068401;28;20011;-68
2022/03/05 02:18:36;;;;;;;;;;;22.00;28.10;;;;;;5067817;28;20190;-68
2022/03/05 02:21:03;;;;;;;;;;;22.00;28.10;;;;;;5068360;28;19981;-68
2022/03/05 02:23:30;;;;;;;;;;;22.00;28.10;;;;;;5068150;28;19978;-68
2022/03/05 02:25:59;;;;;;;;;;;22.00;28.10;;;;;;5067924;28;19925;-68
2022/03/05 02:28:27;;;;;;;;;;;22.00;28.10;;;;;;5067712;28;19935;-68
2022/03/05 02:30:55;;;;;;;;;;;22.00;28.20;;;;;;5067583;28;19931;-68
2022/03/05 02:33:22;;;;;;;;;;;22.00;28.10;;;;;;5067921;28;20362;-68
2022/03/05 02:35:49;;;;;;;;;;;22.00;28.10;;;;;;5068291;28;19929;-68
2022/03/05 02:38:17;;;;;;;;;;;22.00;28.10;;;;;;5067401;28;20335;-68
2022/03/05 02:40:45;;;;;;;;;;;22.00;28.10;;;;;;5067815;28;19925;-68
2022/03/05 02:43:12;;;;;;;;;;;22.00;28.10;;;;;;5067420;28;19971;-68
2022/03/05 02:45:40;;;;;;;;;;;22.00;28.10;;;;;;5067459;28;19929;-68
2022/03/05 02:48:08;;;;;;;;;;;22.00;28.10;;;;;;5067482;28;20413;-68
2022/03/05 02:50:35;;;;;;;;;;;22.00;28.10;;;;;;5067527;28;19990;-68
2022/03/05 02:53:02;;;;;;;;;;;22.00;28.10;;;;;;5067389;28;20350;-68
2022/03/05 02:55:29;;;;;;;;;;;22.00;28.10;;;;;;5067178;28;20001;-68
2022/03/05 02:57:56;;;;;;;;;;;22.00;28.10;;;;;;5066914;28;19925;-68
2022/03/05 03:00:23;;;;;;;;;;;22.00;28.10;;;;;;5067534;28;19929;-68
2022/03/05 03:02:50;;;;;;;;;;;22.00;28.20;;;;;;5066742;28;19925;-69
2022/03/05 03:05:18;;;;;;;;;;;22.00;28.20;;;;;;5067400;28;19925;-68
2022/03/05 03:07:45;;;;;;;;;;;22.00;28.20;;;;;;5066725;28;20138;-68
2022/03/05 03:10:12;;;;;;;;;;;22.00;28.20;;;;;;5067001;28;20063;-68
2022/03/05 03:12:39;;;;;;;;;;;22.00;28.20;;;;;;5066939;28;19974;-68
2022/03/05 03:15:08;;;;;;;;;;;22.00;28.20;;;;;;5066382;28;19924;-68
2022/03/05 03:17:42;;;;;;;;;;;22.00;28.20;;;;;;5066601;28;19924;-68
2022/03/05 03:20:11;;;;;;;;;;;22.00;28.20;;;;;;5066647;28;19978;-68
2022/03/05 03:22:38;;;;;;;;;;;22.00;28.20;;;;;;5066399;28;20507;-68
2022/03/05 03:25:06;;;;;;;;;;;22.00;28.20;;;;;;5066838;28;20496;-68
2022/03/05 03:27:33;;;;;;;;;;;22.00;28.20;;;;;;5066405;28;19945;-68
2022/03/05 03:30:00;;;;;;;;;;;22.00;28.20;;;;;;5067017;28;19963;-68
2022/03/05 03:32:27;;;;;;;;;;;22.00;28.20;;;;;;5066437;28;19963;-68
2022/03/05 03:34:54;;;;;;;;;;;21.90;28.20;;;;;;5066742;28;19936;-68
2022/03/05 03:37:21;;;;;;;;;;;22.00;28.20;;;;;;5066130;28;19924;-68
2022/03/05 03:39:50;;;;;;;;;;;21.90;28.20;;;;;;5066674;28;19970;-68
2022/03/05 03:42:18;;;;;;;;;;;22.00;28.20;;;;;;5066697;28;20136;-68
2022/03/05 03:44:45;;;;;;;;;;;21.90;28.20;;;;;;5066157;28;20120;-68
2022/03/05 03:47:12;;;;;;;;;;;21.90;28.20;;;;;;5066361;28;19951;-68
2022/03/05 03:49:39;;;;;;;;;;;22.00;28.30;;;;;;5066379;28;20026;-68
2022/03/05 03:52:06;;;;;;;;;;;21.90;28.20;;;;;;5066003;28;19924;-68
2022/03/05 03:54:33;;;;;;;;;;;21.90;28.30;;;;;;5066402;28;19925;-68
2022/03/05 03:57:00;;;;;;;;;;;21.90;28.20;;;;;;5065904;28;19925;-68
2022/03/05 03:59:27;;;;;;;;;;;21.90;28.20;;;;;;5066312;28;19924;-68
2022/03/05 04:01:54;;;;;;;;;;;21.90;28.20;;;;;;5066036;28;19929;-68
2022/03/05 04:04:22;;;;;;;;;;;21.90;28.20;;;;;;5066696;28;19924;-68
2022/03/05 04:09:35;;;;;;;;;;;21.90;28.30;;;;;;5066141;28;19947;-68
2022/03/05 04:12:03;;;;;;;;;;;21.90;28.30;;;;;;5065905;28;19925;-68
2022/03/05 04:14:30;;;;;;;;;;;21.90;28.30;;;;;;5066103;28;19979;-68
2022/03/05 04:16:57;;;;;;;;;;;21.90;28.30;;;;;;5066207;28;20002;-68
2022/03/05 04:19:24;;;;;;;;;;;21.90;28.30;;;;;;5066041;28;19925;-68
2022/03/05 04:21:51;;;;;;;;;;;21.90;28.30;;;;;;5065984;28;19925;-69
2022/03/05 04:24:18;;;;;;;;;;;21.90;28.30;;;;;;5066187;28;20321;-69
2022/03/05 04:26:45;;;;;;;;;;;21.90;28.30;;;;;;5070294;28;19932;-68
2022/03/05 04:29:12;;;;;;;;;;;21.90;28.30;;;;;;5070822;28;19982;-68
2022/03/05 04:31:39;;;;;;;;;;;21.90;28.30;;;;;;5070042;28;19981;-68
2022/03/05 04:34:06;;;;;;;;;;;21.90;28.20;;;;;;5070405;28;19947;-68
2022/03/05 04:36:33;;;;;;;;;;;21.90;28.20;;;;;;5069577;28;20351;-68
2022/03/05 04:39:00;;;;;;;;;;;21.90;28.20;;;;;;5070124;28;19960;-68
2022/03/05 04:41:26;;;;;;;;;;;21.90;28.20;;;;;;5069549;28;19978;-68
2022/03/05 04:43:53;;;;;;;;;;;21.90;28.70;;;;;;5070158;28;20539;-67
2022/03/05 04:46:21;;;;;;;;;;;21.90;28.20;;;;;;5069560;28;20348;-68
2022/03/05 04:48:48;;;;;;;;;;;21.90;28.30;;;;;;5069572;28;20344;-69
2022/03/05 04:51:15;;;;;;;;;;;21.90;28.30;;;;;;5070079;28;19925;-68
2022/03/05 04:53:41;;;;;;;;;;;21.90;28.30;;;;;;5069689;28;20163;-68
2022/03/05 04:56:08;;;;;;;;;;;21.80;28.20;;;;;;5069446;28;20250;-68
2022/03/05 04:58:35;;;;;;;;;;;21.90;28.30;;;;;;5069057;28;19926;-68
2022/03/05 05:01:03;;;;;;;;;;;21.90;28.30;;;;;;5069447;28;20377;-68
2022/03/05 05:03:30;;;;;;;;;;;21.90;28.30;;;;;;5069323;28;20361;-68
2022/03/05 05:05:57;;;;;;;;;;;21.90;28.30;;;;;;5069448;28;20023;-68
2022/03/05 05:08:24;;;;;;;;;;;21.90;28.30;;;;;;5068930;28;19928;-68
2022/03/05 05:10:51;;;;;;;;;;;21.90;28.30;;;;;;5069471;28;19924;-68
2022/03/05 05:13:18;;;;;;;;;;;21.90;28.30;;;;;;5068787;28;19978;-68
2022/03/05 05:15:45;;;;;;;;;;;21.90;28.30;;;;;;5069404;28;20447;-68
2022/03/05 05:18:12;;;;;;;;;;;21.90;28.30;;;;;;5069359;28;20455;-69
2022/03/05 05:20:40;;;;;;;;;;;21.90;28.30;;;;;;5069042;28;19932;-68
2022/03/05 05:23:07;;;;;;;;;;;21.90;28.30;;;;;;5068910;28;20045;-68
2022/03/05 05:25:34;;;;;;;;;;;21.90;28.30;;;;;;5069380;28;19951;-69
2022/03/05 05:28:01;;;;;;;;;;;21.90;28.30;;;;;;5068796;28;20374;-68
2022/03/05 05:30:28;;;;;;;;;;;21.90;28.40;;;;;;5069341;28;19924;-69
2022/03/05 05:32:55;;;;;;;;;;;21.90;28.40;;;;;;5068699;28;19925;-68
2022/03/05 05:35:22;;;;;;;;;;;21.90;28.30;;;;;;5068814;28;19974;-69
2022/03/05 05:37:49;;;;;;;;;;;21.80;28.30;;;;;;5067898;28;19970;-68
2022/03/05 05:40:16;;;;;;;;;;;21.90;28.40;;;;;;5068584;28;20020;-69
2022/03/05 05:42:43;;;;;;;;;;;21.80;28.30;;;;;;5068562;28;19981;-68
2022/03/05 05:45:10;;;;;;;;;;;21.90;28.40;;;;;;5068913;28;19937;-68
2022/03/05 05:47:37;;;;;;;;;;;21.90;28.40;;;;;;5068208;28;19977;-68
2022/03/05 05:50:05;;;;;;;;;;;21.90;28.40;;;;;;5068420;28;20268;-68
2022/03/05 05:52:32;;;;;;;;;;;21.90;28.40;;;;;;5068100;28;20413;-68
2022/03/05 05:54:59;;;;;;;;;;;21.90;28.40;;;;;;5067279;28;19929;-68
2022/03/05 05:57:26;;;;;;;;;;;21.90;28.40;;;;;;5067967;28;19970;-68
2022/03/05 05:59:53;;;;;;;;;;;21.90;28.40;;;;;;5068897;28;20429;-68
2022/03/05 06:02:21;;;;;;;;;;;21.80;28.30;;;;;;5068065;28;20389;-68
2022/03/05 06:04:48;;;;;;;;;;;21.80;28.30;;;;;;5068762;28;20361;-68
2022/03/05 06:07:15;;;;;;;;;;;21.80;28.30;;;;;;5063789;28;19944;-69
2022/03/05 06:09:42;;;;;;;;;;;21.90;28.30;;;;;;5044686;28;19981;-68
2022/03/05 06:12:13;;;;;;;;;;;21.90;28.20;;;;;;5048000;28;20380;-68
2022/03/05 06:14:41;;;;;;;;;;;21.90;28.20;;;;;;5047303;28;20019;-68
2022/03/05 06:17:09;;;;;;;;;;;21.90;28.20;;;;;;5045339;28;20220;-68
2022/03/05 06:19:38;;;;;;;;;;;21.90;28.20;;;;;;5047253;28;19940;-68
2022/03/05 06:22:05;;;;;;;;;;;21.90;28.10;;;;;;5045068;28;19925;-68
2022/03/05 06:24:32;;;;;;;;;;;21.90;28.00;;;;;;5046740;28;20346;-68
2022/03/05 06:26:59;;;;;;;;;;;22.00;28.00;;;;;;5047530;28;19929;-68
2022/03/05 06:29:26;;;;;;;;;;;22.00;28.00;;;;;;5048073;28;19929;-68
2022/03/05 06:31:54;;;;;;;;;;;22.00;27.90;;;;;;5046780;28;19925;-68
2022/03/05 06:34:21;;;;;;;;;;;22.10;27.90;;;;;;5046367;28;19925;-68
2022/03/05 06:36:48;;;;;;;;;;;22.10;27.80;;;;;;5046787;28;19929;-68
2022/03/05 06:39:15;;;;;;;;;;;22.20;27.80;;;;;;5046475;28;20007;-68
2022/03/05 06:41:42;;;;;;;;;;;22.20;27.70;;;;;;5046608;28;20390;-68
2022/03/05 06:44:09;;;;;;;;;;;22.30;27.60;;;;;;5047532;28;20058;-68
2022/03/05 06:46:36;;;;;;;;;;;22.30;27.60;;;;;;5042340;28;19925;-68
2022/03/05 06:49:03;;;;;;;;;;;22.40;27.50;;;;;;5046500;28;19947;-68
2022/03/05 06:51:30;;;;;;;;;;;22.50;27.50;;;;;;5045517;28;20493;-68
2022/03/05 06:53:57;;;;;;;;;;;22.50;27.40;;;;;;5042329;28;19929;-68
2022/03/05 06:56:24;;;;;;;;;;;22.60;27.30;;;;;;5046850;28;19968;-68
2022/03/05 06:58:51;;;;;;;;;;;22.70;27.30;;;;;;5047866;28;20444;-68
2022/03/05 07:01:18;;;;;;;;;;;22.80;27.20;;;;;;5047049;28;19924;-68
2022/03/05 07:03:45;;;;;;;;;;;22.80;27.10;;;;;;5046752;28;19931;-68
2022/03/05 07:06:12;;;;;;;;;;;22.90;27.10;;;;;;5047452;28;19925;-69
2022/03/05 07:08:39;;;;;;;;;;;23.00;27.00;;;;;;5047058;28;19929;-69
2022/03/05 07:11:06;;;;;;;;;;;23.00;27.00;;;;;;5047106;28;20251;-68
2022/03/05 07:13:34;;;;;;;;;;;23.10;26.90;;;;;;5047009;28;19929;-68
2022/03/05 07:16:01;;;;;;;;;;;23.20;26.90;;;;;;5047480;28;19925;-68
2022/03/05 07:18:28;;;;;;;;;;;23.20;26.80;;;;;;5046776;28;20301;-68
2022/03/05 07:20:57;;;;;;;;;;;23.30;26.70;;;;;;5047065;28;19925;-68
2022/03/05 07:23:24;;;;;;;;;;;23.30;26.60;;;;;;5046526;28;19998;-68
2022/03/05 07:25:51;;;;;;;;;;;23.40;26.60;;;;;;5046989;28;19995;-69
2022/03/05 07:28:18;;;;;;;;;;;23.50;26.60;;;;;;5046647;28;20390;-69
2022/03/05 07:30:45;;;;;;;;;;;23.50;26.50;;;;;;5046808;28;19971;-70
2022/03/05 07:33:13;;;;;;;;;;;23.60;26.40;;;;;;5046249;28;19975;-69
2022/03/05 07:35:40;;;;;;;;;;;23.70;26.50;;;;;;5046906;28;19933;-69
2022/03/05 07:38:07;;;;;;;;;;;23.80;26.40;;;;;;5046394;28;19925;-69
2022/03/05 07:40:34;;;;;;;;;;;23.80;26.30;;;;;;5046579;28;20235;-69
2022/03/05 07:43:01;;;;;;;;;;;23.90;26.20;;;;;;5046436;28;20296;-69
2022/03/05 07:45:28;;;;;;;;;;;23.90;26.20;;;;;;5046317;28;20210;-69
2022/03/05 07:47:55;;;;;;;;;;;23.90;26.50;;;;;;5045932;28;19994;-69
2022/03/05 07:50:22;;;;;;;;;;;24.00;26.00;;;;;;5046134;28;19925;-69
2022/03/05 07:52:49;;;;;;;;;;;24.10;26.00;;;;;;5046141;28;19925;-69
2022/03/05 07:55:16;;;;;;;;;;;24.10;25.90;;;;;;5046780;28;19925;-69
2022/03/05 07:57:43;;;;;;;;;;;24.20;25.90;;;;;;5046314;28;19929;-69
2022/03/05 08:00:10;;;;;;;;;;;24.30;25.90;;;;;;5045886;28;20001;-69
2022/03/05 08:02:54;;;;;;;;;;;24.30;25.70;;;;;;5046023;28;20382;-69
2022/03/05 08:05:21;;;;;;;;;;;24.40;25.70;;;;;;5046750;28;20298;-69
2022/03/05 08:07:48;;;;;;;;;;;24.50;25.70;;;;;;5046028;28;19929;-69
2022/03/05 08:10:18;;;;;;;;;;;24.50;25.60;;;;;;5045394;28;21390;-69
2022/03/05 08:12:45;;;;;;;;;;;24.60;25.60;;;;;;5046294;28;19940;-69
2022/03/05 08:15:12;;;;;;;;;;;24.70;25.50;;;;;;5046190;28;20293;-69
2022/03/05 08:17:49;;;;;;;;;;;24.70;25.50;;;;;;5045773;28;19936;-68
2022/03/05 08:20:17;;;;;;;;;;;24.70;25.40;;;;;;5046345;28;19982;-69
2022/03/05 08:22:44;;;;;;;;;;;24.80;25.40;;;;;;5045912;28;19960;-68
2022/03/05 08:25:12;;;;;;;;;;;24.90;25.40;;;;;;5046285;28;20361;-69
2022/03/05 08:27:39;;;;;;;;;;;24.90;25.30;;;;;;5045685;28;20485;-69
2022/03/05 08:30:06;;;;;;;;;;;24.90;25.30;;;;;;5046051;28;19960;-69
2022/03/05 08:32:34;;;;;;;;;;;25.00;25.30;;;;;;5045853;28;19929;-69
2022/03/05 08:35:01;;;;;;;;;;;25.00;25.30;;;;;;5046611;28;20168;-69
2022/03/05 08:37:28;;;;;;;;;;;25.10;25.20;;;;;;5045352;28;20158;-69
2022/03/05 08:39:55;;;;;;;;;;;25.10;25.20;;;;;;5045740;28;20451;-69
2022/03/05 08:42:22;;;;;;;;;;;25.10;25.60;;;;;;5045952;28;19955;-69
2022/03/05 08:44:49;;;;;;;;;;;25.10;25.10;;;;;;5045651;28;20398;-68
2022/03/05 08:47:16;;;;;;;;;;;25.20;25.10;;;;;;5045713;28;19925;-69
2022/03/05 08:49:43;;;;;;;;;;;25.20;25.10;;;;;;5046291;28;20123;-69
2022/03/05 08:52:11;;;;;;;;;;;25.20;25.00;;;;;;5045589;28;19944;-69
2022/03/05 08:54:38;;;;;;;;;;;25.30;25.10;;;;;;5045681;28;20264;-68
2022/03/05 08:57:05;;;;;;;;;;;25.30;25.00;;;;;;5045199;28;20050;-69
2022/03/05 08:59:32;;;;;;;;;;;25.30;25.00;;;;;;5046143;28;20179;-69
2022/03/05 09:01:59;;;;;;;;;;;25.40;25.00;;;;;;5045760;28;19972;-69
2022/03/05 09:04:26;;;;;;;;;;;25.40;24.90;;;;;;5045759;28;19943;-68
2022/03/05 09:06:53;;;;;;;;;;;25.40;25.40;;;;;;5045454;28;20140;-69
2022/03/05 09:09:20;;;;;;;;;;;25.40;24.90;;;;;;5045564;28;19986;-68
2022/03/05 09:11:47;;;;;;;;;;;25.50;24.90;;;;;;5046602;28;20011;-68
2022/03/05 09:14:14;;;;;;;;;;;25.50;24.90;;;;;;5049678;28;20354;-68
2022/03/05 09:16:41;;;;;;;;;;;25.50;24.80;;;;;;5049096;28;20439;-68
2022/03/05 09:19:09;;;;;;;;;;;25.50;24.80;;;;;;5049150;28;19976;-69
2022/03/05 09:21:36;;;;;;;;;;;25.50;24.70;;;;;;5048635;28;19925;-68
2022/03/05 09:24:04;;;;;;;;;;;25.60;24.80;;;;;;5049378;28;19929;-68
2022/03/05 09:26:32;;;;;;;;;;;25.60;24.70;;;;;;5048832;28;20332;-68
2022/03/05 09:28:59;;;;;;;;;;;25.60;24.70;;;;;;5081153;28;19994;-68
2022/03/05 09:31:26;;;;;;;;;;;25.60;24.70;;;;;;5048883;28;19979;-68
2022/03/05 09:33:53;;;;;;;;;;;25.70;24.70;;;;;;5048547;28;19943;-68
2022/03/05 09:36:20;;;;;;;;;;;25.70;24.70;;;;;;5048581;28;20298;-69
2022/03/05 09:38:48;;;;;;;;;;;25.70;24.70;;;;;;5048983;28;20118;-68
2022/03/05 09:41:15;;;;;;;;;;;25.70;24.60;;;;;;5048447;28;19931;-69
2022/03/05 09:43:43;;;;;;;;;;;25.70;24.60;;;;;;5048379;28;19925;-68
2022/03/05 09:46:10;;;;;;;;;;;25.70;24.50;;;;;;5048552;28;19929;-69
2022/03/05 09:48:39;;;;;;;;;;;25.80;24.50;;;;;;5048683;28;20061;-69
2022/03/05 09:51:06;;;;;;;;;;;25.80;24.50;;;;;;5048736;28;20023;-69
2022/03/05 09:53:33;;;;;;;;;;;25.80;24.40;;;;;;5048295;28;19970;-68
2022/03/05 09:56:00;;;;;;;;;;;25.80;24.40;;;;;;5048852;28;19924;-68
2022/03/05 09:58:58;;;;;;;;;;;25.90;24.40;;;;;;5048392;28;19931;-69
2022/03/05 10:01:25;;;;;;;;;;;25.90;24.40;;;;;;5048467;28;19968;-69
2022/03/05 10:03:53;;;;;;;;;;;25.90;24.30;;;;;;5048101;28;19931;-69
2022/03/05 10:06:21;;;;;;;;;;;25.90;24.20;;;;;;5048017;28;20109;-69
2022/03/05 10:08:52;;;;;;;;;;;25.90;24.20;;;;;;5047833;28;20444;-68
2022/03/05 10:11:19;;;;;;;;;;;26.00;24.30;;;;;;5048353;28;19939;-68
2022/03/05 10:13:46;;;;;;;;;;;26.00;24.20;;;;;;5048131;28;19924;-68
2022/03/05 10:16:32;;;;;;;;;;;26.00;24.20;;;;;;5047698;28;19936;-69
2022/03/05 10:19:17;;;;;;;;;;;26.00;24.10;;;;;;5048071;28;20570;-69
2022/03/05 10:21:58;;;;;;;;;;;26.00;24.10;;;;;;5047633;28;19928;-68
2022/03/05 10:24:32;;;;;;;;;;;26.00;24.10;;;;;;5048041;28;20349;-68
2022/03/05 10:27:00;;;;;;;;;;;26.00;24.10;;;;;;5048043;28;19964;-68
2022/03/05 10:29:29;;;;;;;;;;;26.10;24.20;;;;;;5048544;28;20221;-69
2022/03/05 10:31:57;;;;;;;;;;;26.10;24.10;;;;;;5047581;28;19932;-69
2022/03/05 10:34:24;;;;;;;;;;;26.10;24.10;;;;;;5047788;28;19929;-69
2022/03/05 10:36:59;;;;;;;;;;;26.10;24.00;;;;;;5048106;28;19955;-68
2022/03/05 10:39:27;;;;;;;;;;;26.10;24.00;;;;;;5047198;28;20317;-68
2022/03/05 10:41:57;;;;;;;;;;;26.10;24.00;;;;;;5047827;28;20179;-68
2022/03/05 10:44:24;;;;;;;;;;;26.20;23.90;;;;;;5048205;28;19924;-69
2022/03/05 10:46:55;;;;;;;;;;;26.20;24.00;;;;;;5047410;28;19940;-68
2022/03/05 10:49:24;;;;;;;;;;;26.20;23.90;;;;;;5047732;28;20016;-69
2022/03/05 10:52:02;;;;;;;;;;;26.20;23.90;;;;;;5047552;28;20088;-68
2022/03/05 10:54:31;;;;;;;;;;;26.30;23.90;;;;;;5047325;28;20440;-69
2022/03/05 10:57:18;;;;;;;;;;;26.20;23.80;;;;;;5047285;28;19994;-69
2022/03/05 10:59:49;;;;;;;;;;;26.30;23.90;;;;;;5047204;28;19925;-69
2022/03/05 11:02:17;;;;;;;;;;;26.30;23.70;;;;;;5045721;28;20443;-68
2022/03/05 11:04:44;;;;;;;;;;;26.30;23.70;;;;;;5046997;28;19924;-69
2022/03/05 11:07:13;;;;;;;;;;;26.30;23.70;;;;;;5047089;28;20249;-69
2022/03/05 11:09:42;;;;;;;;;;;26.40;23.70;;;;;;5046921;28;19929;-68
2022/03/05 11:12:14;;;;;;;;;;;26.40;23.70;;;;;;5047325;28;19956;-68
2022/03/05 11:14:44;;;;;;;;;;;26.40;23.70;;;;;;5047201;28;20028;-68
2022/03/05 11:17:11;;;;;;;;;;;26.40;23.60;;;;;;5047149;28;19964;-68
2022/03/05 11:19:38;;;;;;;;;;;26.40;23.60;;;;;;5047040;28;19925;-68
2022/03/05 11:22:06;;;;;;;;;;;26.40;23.60;;;;;;5046534;28;20030;-69
2022/03/05 11:24:33;;;;;;;;;;;26.50;23.60;;;;;;5047169;28;19925;-68
2022/03/05 11:27:00;;;;;;;;;;;26.50;23.60;;;;;;5046910;28;19972;-68
2022/03/05 11:29:29;;;;;;;;;;;26.50;23.50;;;;;;5046639;28;19924;-68
2022/03/05 11:32:10;;;;;;;;;;;26.50;23.50;;;;;;5046679;28;19931;-68
2022/03/05 11:34:44;;;;;;;;;;;26.50;23.50;;;;;;5045661;28;20378;-69
2022/03/05 11:37:30;;;;;;;;;;;26.50;23.40;;;;;;5046318;28;19979;-68
2022/03/05 11:39:58;;;;;;;;;;;26.50;23.40;;;;;;5046583;28;19925;-68
2022/03/05 11:42:30;;;;;;;;;;;26.50;23.30;;;;;;5046388;28;19983;-69
2022/03/05 11:44:59;;;;;;;;;;;26.50;23.30;;;;;;5046458;28;19975;-68
2022/03/05 11:47:29;;;;;;;;;;;26.50;23.30;;;;;;5046379;28;19967;-68
2022/03/05 11:50:05;;;;;;;;;;;26.50;23.30;;;;;;5046810;28;19929;-68
2022/03/05 11:52:51;;;;;;;;;;;26.50;23.30;;;;;;5046081;28;19928;-68
2022/03/05 11:55:25;;;;;;;;;;;26.50;23.30;;;;;;5045321;28;20519;-68
2022/03/05 11:58:12;;;;;;;;;;;26.50;23.30;;;;;;5046131;28;19928;-68
2022/03/05 12:00:41;;;;;;;;;;;26.50;23.30;;;;;;5045176;28;19955;-69
2022/03/05 12:03:08;;;;;;;;;;;26.50;23.30;;;;;;5046453;28;19925;-68
2022/03/05 12:05:50;;;;;;;;;;;26.50;23.40;;;;;;5046383;28;19960;-69
2022/03/05 12:08:37;;;;;;;;;;;26.50;23.30;;;;;;5053423;28;20347;-68
2022/03/05 12:11:11;;;;;;;;;;;26.50;23.30;;;;;;5065506;28;19928;-68
2022/03/05 12:13:39;;;;;;;;;;;26.50;23.30;;;;;;5066001;28;19970;-68
2022/03/05 12:16:17;;;;;;;;;;;26.50;23.30;;;;;;5066025;28;20447;-68
2022/03/05 12:18:45;;;;;;;;;;;26.50;23.30;;;;;;5066056;28;19933;-68
2022/03/05 12:21:12;;;;;;;;;;;26.50;23.30;;;;;;5066256;28;20334;-68
2022/03/05 12:23:39;;;;;;;;;;;26.50;23.30;;;;;;5065704;28;19932;-68
2022/03/05 12:26:07;;;;;;;;;;;26.50;23.20;;;;;;5066554;28;19974;-68
2022/03/05 12:28:40;;;;;;;;;;;26.50;23.20;;;;;;5065778;28;19990;-68
2022/03/05 12:31:18;;;;;;;;;;;26.50;23.20;;;;;;5066338;28;19936;-69
2022/03/05 12:33:57;;;;;;;;;;;26.50;23.20;;;;;;5065868;28;19925;-69
2022/03/05 12:36:24;;;;;;;;;;;26.50;23.20;;;;;;5065492;28;20024;-69
2022/03/05 12:38:56;;;;;;;;;;;26.50;23.20;;;;;;5065841;28;19990;-69
2022/03/05 12:41:23;;;;;;;;;;;26.50;23.10;;;;;;5065337;28;19932;-68
2022/03/05 12:43:50;;;;;;;;;;;26.50;23.10;;;;;;5065978;28;19985;-68
2022/03/05 12:46:18;;;;;;;;;;;26.50;23.10;;;;;;5067720;28;19994;-68
2022/03/05 12:48:45;;;;;;;;;;;26.50;23.10;;;;;;5069841;28;20015;-69
2022/03/05 12:51:12;;;;;;;;;;;26.50;23.10;;;;;;5069745;28;19936;-68
2022/03/05 12:53:41;;;;;;;;;;;26.50;23.10;;;;;;5069219;28;20266;-68
2022/03/05 12:56:08;;;;;;;;;;;26.50;23.00;;;;;;5069790;28;19936;-68
2022/03/05 12:58:36;;;;;;;;;;;26.50;23.00;;;;;;5069294;28;19971;-68
2022/03/05 13:01:08;;;;;;;;;;;26.50;23.00;;;;;;5069592;28;19924;-68
2022/03/05 13:03:36;;;;;;;;;;;26.40;23.00;;;;;;5069642;28;19928;-68
2022/03/05 13:06:03;;;;;;;;;;;26.40;23.00;;;;;;5069626;28;19928;-68
2022/03/05 13:08:32;;;;;;;;;;;26.40;23.00;;;;;;5069429;28;20410;-68
2022/03/05 13:11:12;;;;;;;;;;;26.30;23.00;;;;;;5070036;28;19970;-68
2022/03/05 13:13:41;;;;;;;;;;;26.30;23.00;;;;;;5069633;28;19932;-68
2022/03/05 13:16:09;;;;;;;;;;;26.30;22.90;;;;;;5069045;28;19998;-68
2022/03/05 13:18:37;;;;;;;;;;;26.20;22.90;;;;;;5068945;28;20385;-68
2022/03/05 13:21:05;;;;;;;;;;;26.20;22.90;;;;;;5069618;28;20534;-68
2022/03/05 13:23:36;;;;;;;;;;;26.20;22.90;;;;;;5068800;28;19928;-68
2022/03/05 13:26:03;;;;;;;;;;;26.10;22.80;;;;;;5069453;28;19960;-68
2022/03/05 13:28:31;;;;;;;;;;;26.10;22.90;;;;;;5068521;28;19990;-68
2022/03/05 13:31:00;;;;;;;;;;;26.00;22.80;;;;;;5069145;28;20066;-68
2022/03/05 13:33:47;;;;;;;;;;;26.00;22.90;;;;;;5068838;28;19947;-68
2022/03/05 13:36:15;;;;;;;;;;;26.00;22.90;;;;;;5068545;28;19924;-68
2022/03/05 13:38:43;;;;;;;;;;;26.00;22.90;;;;;;5068690;28;19963;-68
2022/03/05 13:41:17;;;;;;;;;;;25.90;22.90;;;;;;5068590;28;19931;-68
2022/03/05 13:43:44;;;;;;;;;;;25.90;22.90;;;;;;5068777;28;19990;-68
2022/03/05 13:46:11;;;;;;;;;;;25.90;22.90;;;;;;5068720;28;19990;-68
2022/03/05 13:48:45;;;;;;;;;;;25.80;22.80;;;;;;5068814;28;19950;-68
2022/03/05 13:51:16;;;;;;;;;;;25.80;22.90;;;;;;5068840;28;19978;-68
2022/03/05 13:53:44;;;;;;;;;;;25.80;22.80;;;;;;5068304;28;20360;-67
2022/03/05 13:56:13;;;;;;;;;;;25.70;22.80;;;;;;5068623;28;20019;-68
2022/03/05 13:58:41;;;;;;;;;;;25.70;22.80;;;;;;5067586;28;19982;-67
2022/03/05 14:01:15;;;;;;;;;;;25.70;22.90;;;;;;5068380;28;20430;-68
2022/03/05 14:04:02;;;;;;;;;;;25.70;22.90;;;;;;5068861;28;20236;-67
2022/03/05 14:06:29;;;;;;;;;;;25.70;22.90;;;;;;5067744;28;19971;-68
2022/03/05 14:08:59;;;;;;;;;;;25.60;22.90;;;;;;5068562;28;19929;-68
2022/03/05 14:11:29;;;;;;;;;;;25.60;22.90;;;;;;5067838;28;19932;-67
2022/03/05 14:13:56;;;;;;;;;;;25.60;22.90;;;;;;5069067;28;20140;-68
2022/03/05 14:16:34;;;;;;;;;;;25.50;22.90;;;;;;5067369;28;20413;-68
2022/03/05 14:19:01;;;;;;;;;;;25.50;22.90;;;;;;5068542;28;19944;-68
2022/03/05 14:21:28;;;;;;;;;;;25.50;22.90;;;;;;5068226;28;20462;-68
2022/03/05 14:24:01;;;;;;;;;;;25.40;22.90;;;;;;5068217;28;20041;-69
2022/03/05 14:26:34;;;;;;;;;;;25.40;23.00;;;;;;5068095;28;20001;-67